sensor_id;sensor_type;location;lat;lon;timestamp;P1;durP1;ratioP1;P2;durP2;ratioP2
61360;SDS011;47232;47.506;18.936;2023-03-01T00:02:22;0.10;;;0.10;;
61360;SDS011;47232;47.506;18.936;2023-03-01T00:04:49;0.10;;;0.10;;
61360;SDS011;47232;47.506;18.936;2023-03-01T00:07:17;0.10;;;0.10;;
61360;SDS011;47232;47.506;18.936;2023-03-01T00:09:44;0.10;;;0.10;;
61360;SDS011;47232;47.506;18.936;2023-03-01T00:12:12;0.10;;;0.10;;
61360;SDS011;47232;47.506;18.936;2023-03-01T00:14:39;0.00;;;0.00;;
61360;SDS011;47232;47.506;18.936;2023-03-01T00:17:14;0.10;;;0.10;;
61360;SDS011;47232;47.506;18.936;2023-03-01T00:19:42;0.10;;;0.10;;
61360;SDS011;47232;47.506;18.936;2023-03-01T00:22:15;0.10;;;0.10;;
61360;SDS011;47232;47.506;18.936;2023-03-01T00:24:43;0.10;;;0.10;;
61360;SDS011;47232;47.506;18.936;2023-03-01T00:27:11;0.00;;;0.00;;
61360;SDS011;47232;47.506;18.936;2023-03-01T00:29:41;0.10;;;0.10;;
61360;SDS011;47232;47.506;18.936;2023-03-01T00:32:15;0.10;;;0.10;;
61360;SDS011;47232;47.506;18.936;2023-03-01T00:34:45;0.00;;;0.00;;
61360;SDS011;47232;47.506;18.936;2023-03-01T00:37:20;0.00;;;0.00;;
61360;SDS011;47232;47.506;18.936;2023-03-01T00:39:49;0.10;;;0.10;;
61360;SDS011;47232;47.506;18.936;2023-03-01T00:42:37;0.10;;;0.10;;
61360;SDS011;47232;47.506;18.936;2023-03-01T00:45:06;0.00;;;0.00;;
61360;SDS011;47232;47.506;18.936;2023-03-01T00:47:38;0.10;;;0.10;;
61360;SDS011;47232;47.506;18.936;2023-03-01T00:50:26;0.00;;;0.00;;
61360;SDS011;47232;47.506;18.936;2023-03-01T00:52:54;0.10;;;0.10;;
61360;SDS011;47232;47.506;18.936;2023-03-01T00:55:21;0.10;;;0.10;;
61360;SDS011;47232;47.506;18.936;2023-03-01T00:58:10;0.10;;;0.10;;
61360;SDS011;47232;47.506;18.936;2023-03-01T01:00:42;0.00;;;0.00;;
61360;SDS011;47232;47.506;18.936;2023-03-01T01:03:09;0.00;;;0.00;;
61360;SDS011;47232;47.506;18.936;2023-03-01T01:05:37;0.10;;;0.10;;
61360;SDS011;47232;47.506;18.936;2023-03-01T01:08:10;0.00;;;0.00;;
61360;SDS011;47232;47.506;18.936;2023-03-01T01:10:37;0.10;;;0.10;;
61360;SDS011;47232;47.506;18.936;2023-03-01T01:13:26;0.00;;;0.00;;
61360;SDS011;47232;47.506;18.936;2023-03-01T01:16:00;0.10;;;0.10;;
61360;SDS011;47232;47.506;18.936;2023-03-01T01:18:38;0.10;;;0.10;;
61360;SDS011;47232;47.506;18.936;2023-03-01T01:21:27;0.10;;;0.10;;
61360;SDS011;47232;47.506;18.936;2023-03-01T01:23:58;0.10;;;0.10;;
61360;SDS011;47232;47.506;18.936;2023-03-01T01:26:30;0.10;;;0.10;;
61360;SDS011;47232;47.506;18.936;2023-03-01T01:29:04;0.00;;;0.00;;
61360;SDS011;47232;47.506;18.936;2023-03-01T01:32:10;0.00;;;0.00;;
61360;SDS011;47232;47.506;18.936;2023-03-01T01:35:04;0.00;;;0.00;;
61360;SDS011;47232;47.506;18.936;2023-03-01T01:37:52;0.00;;;0.00;;
61360;SDS011;47232;47.506;18.936;2023-03-01T01:40:49;0.10;;;0.10;;
61360;SDS011;47232;47.506;18.936;2023-03-01T01:43:39;0.00;;;0.00;;
61360;SDS011;47232;47.506;18.936;2023-03-01T01:47:01;0.00;;;0.00;;
61360;SDS011;47232;47.506;18.936;2023-03-01T01:49:41;0.10;;;0.10;;
61360;SDS011;47232;47.506;18.936;2023-03-01T01:53:07;0.00;;;0.00;;
61360;SDS011;47232;47.506;18.936;2023-03-01T01:55:42;0.10;;;0.10;;
61360;SDS011;47232;47.506;18.936;2023-03-01T01:58:17;0.00;;;0.00;;
61360;SDS011;47232;47.506;18.936;2023-03-01T02:00:46;0.00;;;0.00;;
61360;SDS011;47232;47.506;18.936;2023-03-01T02:03:27;0.10;;;0.10;;
61360;SDS011;47232;47.506;18.936;2023-03-01T02:08:37;0.00;;;0.00;;
61360;SDS011;47232;47.506;18.936;2023-03-01T02:11:15;0.10;;;0.10;;
61360;SDS011;47232;47.506;18.936;2023-03-01T02:14:33;0.00;;;0.00;;
61360;SDS011;47232;47.506;18.936;2023-03-01T02:18:05;0.00;;;0.00;;
61360;SDS011;47232;47.506;18.936;2023-03-01T02:21:43;0.00;;;0.00;;
61360;SDS011;47232;47.506;18.936;2023-03-01T02:28:31;0.00;;;0.00;;
61360;SDS011;47232;47.506;18.936;2023-03-01T02:31:58;0.00;;;0.00;;
61360;SDS011;47232;47.506;18.936;2023-03-01T02:35:24;0.00;;;0.00;;
61360;SDS011;47232;47.506;18.936;2023-03-01T02:38:14;0.00;;;0.00;;
61360;SDS011;47232;47.506;18.936;2023-03-01T02:41:23;0.10;;;0.10;;
61360;SDS011;47232;47.506;18.936;2023-03-01T02:43:55;0.00;;;0.00;;
61360;SDS011;47232;47.506;18.936;2023-03-01T02:46:52;0.00;;;0.00;;
61360;SDS011;47232;47.506;18.936;2023-03-01T02:50:44;0.00;;;0.00;;
61360;SDS011;47232;47.506;18.936;2023-03-01T02:53:35;0.00;;;0.00;;
61360;SDS011;47232;47.506;18.936;2023-03-01T02:56:41;0.00;;;0.00;;
61360;SDS011;47232;47.506;18.936;2023-03-01T02:59:52;0.00;;;0.00;;
61360;SDS011;47232;47.506;18.936;2023-03-01T03:03:05;0.00;;;0.00;;
61360;SDS011;47232;47.506;18.936;2023-03-01T03:06:16;0.00;;;0.00;;
61360;SDS011;47232;47.506;18.936;2023-03-01T03:09:31;0.00;;;0.00;;
61360;SDS011;47232;47.506;18.936;2023-03-01T03:12:38;0.10;;;0.10;;
61360;SDS011;47232;47.506;18.936;2023-03-01T03:15:43;0.00;;;0.00;;
61360;SDS011;47232;47.506;18.936;2023-03-01T03:18:50;0.10;;;0.10;;
61360;SDS011;47232;47.506;18.936;2023-03-01T03:21:19;0.10;;;0.10;;
61360;SDS011;47232;47.506;18.936;2023-03-01T03:23:49;0.00;;;0.00;;
61360;SDS011;47232;47.506;18.936;2023-03-01T03:26:16;0.10;;;0.10;;
61360;SDS011;47232;47.506;18.936;2023-03-01T03:28:44;0.00;;;0.00;;
61360;SDS011;47232;47.506;18.936;2023-03-01T03:31:15;0.00;;;0.00;;
61360;SDS011;47232;47.506;18.936;2023-03-01T03:33:46;0.10;;;0.10;;
61360;SDS011;47232;47.506;18.936;2023-03-01T03:36:24;0.00;;;0.00;;
61360;SDS011;47232;47.506;18.936;2023-03-01T03:38:54;0.00;;;0.00;;
61360;SDS011;47232;47.506;18.936;2023-03-01T03:41:21;0.10;;;0.10;;
61360;SDS011;47232;47.506;18.936;2023-03-01T03:43:59;0.10;;;0.10;;
61360;SDS011;47232;47.506;18.936;2023-03-01T03:48:56;0.00;;;0.00;;
61360;SDS011;47232;47.506;18.936;2023-03-01T03:51:23;0.00;;;0.00;;
61360;SDS011;47232;47.506;18.936;2023-03-01T03:53:55;0.00;;;0.00;;
61360;SDS011;47232;47.506;18.936;2023-03-01T03:56:21;0.00;;;0.00;;
61360;SDS011;47232;47.506;18.936;2023-03-01T03:58:51;0.00;;;0.00;;
61360;SDS011;47232;47.506;18.936;2023-03-01T04:01:19;0.10;;;0.10;;
61360;SDS011;47232;47.506;18.936;2023-03-01T04:04:10;0.10;;;0.10;;
61360;SDS011;47232;47.506;18.936;2023-03-01T04:06:37;0.00;;;0.00;;
61360;SDS011;47232;47.506;18.936;2023-03-01T04:09:05;0.00;;;0.00;;
61360;SDS011;47232;47.506;18.936;2023-03-01T04:11:33;0.00;;;0.00;;
61360;SDS011;47232;47.506;18.936;2023-03-01T04:14:04;0.10;;;0.10;;
61360;SDS011;47232;47.506;18.936;2023-03-01T04:16:30;0.00;;;0.00;;
61360;SDS011;47232;47.506;18.936;2023-03-01T04:19:17;0.00;;;0.00;;
61360;SDS011;47232;47.506;18.936;2023-03-01T04:22:41;0.00;;;0.00;;
61360;SDS011;47232;47.506;18.936;2023-03-01T04:26:10;0.10;;;0.10;;
61360;SDS011;47232;47.506;18.936;2023-03-01T04:29:40;0.00;;;0.00;;
61360;SDS011;47232;47.506;18.936;2023-03-01T04:33:05;0.00;;;0.00;;
61360;SDS011;47232;47.506;18.936;2023-03-01T04:36:32;0.00;;;0.00;;
61360;SDS011;47232;47.506;18.936;2023-03-01T04:39:58;0.00;;;0.00;;
61360;SDS011;47232;47.506;18.936;2023-03-01T04:42:48;0.00;;;0.00;;
61360;SDS011;47232;47.506;18.936;2023-03-01T04:46:15;0.10;;;0.10;;
61360;SDS011;47232;47.506;18.936;2023-03-01T04:48:43;0.10;;;0.10;;
61360;SDS011;47232;47.506;18.936;2023-03-01T04:51:12;0.00;;;0.00;;
61360;SDS011;47232;47.506;18.936;2023-03-01T04:54:19;0.10;;;0.10;;
61360;SDS011;47232;47.506;18.936;2023-03-01T04:57:44;0.00;;;0.00;;
61360;SDS011;47232;47.506;18.936;2023-03-01T05:00:55;0.00;;;0.00;;
61360;SDS011;47232;47.506;18.936;2023-03-01T05:03:46;0.00;;;0.00;;
61360;SDS011;47232;47.506;18.936;2023-03-01T05:06:14;0.10;;;0.10;;
61360;SDS011;47232;47.506;18.936;2023-03-01T05:08:42;0.10;;;0.10;;
61360;SDS011;47232;47.506;18.936;2023-03-01T05:11:10;0.10;;;0.10;;
61360;SDS011;47232;47.506;18.936;2023-03-01T05:13:39;0.00;;;0.00;;
61360;SDS011;47232;47.506;18.936;2023-03-01T05:16:06;0.10;;;0.10;;
61360;SDS011;47232;47.506;18.936;2023-03-01T05:19:01;0.00;;;0.00;;
61360;SDS011;47232;47.506;18.936;2023-03-01T05:21:40;0.10;;;0.10;;
61360;SDS011;47232;47.506;18.936;2023-03-01T05:24:28;0.00;;;0.00;;
61360;SDS011;47232;47.506;18.936;2023-03-01T05:26:59;0.00;;;0.00;;
61360;SDS011;47232;47.506;18.936;2023-03-01T05:29:28;0.00;;;0.00;;
61360;SDS011;47232;47.506;18.936;2023-03-01T05:31:58;0.00;;;0.00;;
61360;SDS011;47232;47.506;18.936;2023-03-01T05:34:29;0.10;;;0.10;;
61360;SDS011;47232;47.506;18.936;2023-03-01T05:36:59;0.10;;;0.10;;
61360;SDS011;47232;47.506;18.936;2023-03-01T05:39:26;0.10;;;0.10;;
61360;SDS011;47232;47.506;18.936;2023-03-01T05:41:53;0.00;;;0.00;;
61360;SDS011;47232;47.506;18.936;2023-03-01T05:44:22;0.10;;;0.10;;
61360;SDS011;47232;47.506;18.936;2023-03-01T05:46:51;0.00;;;0.00;;
61360;SDS011;47232;47.506;18.936;2023-03-01T05:49:18;0.10;;;0.10;;
61360;SDS011;47232;47.506;18.936;2023-03-01T05:52:05;0.00;;;0.00;;
61360;SDS011;47232;47.506;18.936;2023-03-01T05:54:31;0.10;;;0.10;;
61360;SDS011;47232;47.506;18.936;2023-03-01T05:57:37;0.10;;;0.10;;
61360;SDS011;47232;47.506;18.936;2023-03-01T06:00:09;0.10;;;0.10;;
61360;SDS011;47232;47.506;18.936;2023-03-01T06:02:37;0.10;;;0.10;;
61360;SDS011;47232;47.506;18.936;2023-03-01T06:05:04;0.00;;;0.00;;
61360;SDS011;47232;47.506;18.936;2023-03-01T06:07:31;0.00;;;0.00;;
61360;SDS011;47232;47.506;18.936;2023-03-01T06:10:01;0.10;;;0.10;;
61360;SDS011;47232;47.506;18.936;2023-03-01T06:13:10;0.10;;;0.10;;
61360;SDS011;47232;47.506;18.936;2023-03-01T06:16:35;0.10;;;0.10;;
61360;SDS011;47232;47.506;18.936;2023-03-01T06:20:08;0.00;;;0.00;;
61360;SDS011;47232;47.506;18.936;2023-03-01T06:23:32;0.10;;;0.10;;
61360;SDS011;47232;47.506;18.936;2023-03-01T06:26:33;0.00;;;0.00;;
61360;SDS011;47232;47.506;18.936;2023-03-01T06:29:20;0.00;;;0.00;;
61360;SDS011;47232;47.506;18.936;2023-03-01T06:32:16;0.10;;;0.10;;
61360;SDS011;47232;47.506;18.936;2023-03-01T06:34:50;0.00;;;0.00;;
61360;SDS011;47232;47.506;18.936;2023-03-01T06:37:25;0.10;;;0.10;;
61360;SDS011;47232;47.506;18.936;2023-03-01T06:40:01;0.10;;;0.10;;
61360;SDS011;47232;47.506;18.936;2023-03-01T06:42:34;0.10;;;0.10;;
61360;SDS011;47232;47.506;18.936;2023-03-01T06:45:01;0.00;;;0.00;;
61360;SDS011;47232;47.506;18.936;2023-03-01T06:47:26;0.00;;;0.00;;
61360;SDS011;47232;47.506;18.936;2023-03-01T06:49:52;0.10;;;0.10;;
61360;SDS011;47232;47.506;18.936;2023-03-01T06:52:22;0.10;;;0.10;;
61360;SDS011;47232;47.506;18.936;2023-03-01T06:54:51;0.10;;;0.10;;
61360;SDS011;47232;47.506;18.936;2023-03-01T06:57:35;0.00;;;0.00;;
61360;SDS011;47232;47.506;18.936;2023-03-01T07:00:04;0.00;;;0.00;;
61360;SDS011;47232;47.506;18.936;2023-03-01T07:02:31;0.10;;;0.10;;
61360;SDS011;47232;47.506;18.936;2023-03-01T07:05:05;0.00;;;0.00;;
61360;SDS011;47232;47.506;18.936;2023-03-01T07:07:33;0.10;;;0.10;;
61360;SDS011;47232;47.506;18.936;2023-03-01T07:10:00;0.10;;;0.10;;
61360;SDS011;47232;47.506;18.936;2023-03-01T07:12:46;0.10;;;0.10;;
61360;SDS011;47232;47.506;18.936;2023-03-01T07:15:39;0.00;;;0.00;;
61360;SDS011;47232;47.506;18.936;2023-03-01T07:18:16;0.10;;;0.10;;
61360;SDS011;47232;47.506;18.936;2023-03-01T07:21:05;0.10;;;0.10;;
61360;SDS011;47232;47.506;18.936;2023-03-01T07:23:51;0.10;;;0.10;;
61360;SDS011;47232;47.506;18.936;2023-03-01T07:26:19;0.10;;;0.10;;
61360;SDS011;47232;47.506;18.936;2023-03-01T07:28:46;0.10;;;0.10;;
61360;SDS011;47232;47.506;18.936;2023-03-01T07:31:31;0.00;;;0.00;;
61360;SDS011;47232;47.506;18.936;2023-03-01T07:33:58;0.10;;;0.10;;
61360;SDS011;47232;47.506;18.936;2023-03-01T07:36:27;0.00;;;0.00;;
61360;SDS011;47232;47.506;18.936;2023-03-01T07:38:58;0.10;;;0.10;;
61360;SDS011;47232;47.506;18.936;2023-03-01T07:41:42;0.10;;;0.10;;
61360;SDS011;47232;47.506;18.936;2023-03-01T07:44:49;0.10;;;0.10;;
61360;SDS011;47232;47.506;18.936;2023-03-01T07:47:16;0.10;;;0.10;;
61360;SDS011;47232;47.506;18.936;2023-03-01T07:49:44;0.10;;;0.10;;
61360;SDS011;47232;47.506;18.936;2023-03-01T07:52:31;0.10;;;0.10;;
61360;SDS011;47232;47.506;18.936;2023-03-01T07:54:59;0.10;;;0.10;;
61360;SDS011;47232;47.506;18.936;2023-03-01T07:57:30;0.10;;;0.10;;
61360;SDS011;47232;47.506;18.936;2023-03-01T08:00:38;0.10;;;0.10;;
61360;SDS011;47232;47.506;18.936;2023-03-01T08:03:19;0.10;;;0.10;;
61360;SDS011;47232;47.506;18.936;2023-03-01T08:05:49;0.10;;;0.10;;
61360;SDS011;47232;47.506;18.936;2023-03-01T08:08:30;0.10;;;0.10;;
61360;SDS011;47232;47.506;18.936;2023-03-01T08:11:02;0.10;;;0.10;;
61360;SDS011;47232;47.506;18.936;2023-03-01T08:13:34;0.10;;;0.10;;
61360;SDS011;47232;47.506;18.936;2023-03-01T08:16:04;0.10;;;0.10;;
61360;SDS011;47232;47.506;18.936;2023-03-01T08:18:37;0.10;;;0.10;;
61360;SDS011;47232;47.506;18.936;2023-03-01T08:21:25;0.10;;;0.10;;
61360;SDS011;47232;47.506;18.936;2023-03-01T08:23:51;0.10;;;0.10;;
61360;SDS011;47232;47.506;18.936;2023-03-01T08:26:44;0.10;;;0.10;;
61360;SDS011;47232;47.506;18.936;2023-03-01T08:29:52;0.10;;;0.10;;
61360;SDS011;47232;47.506;18.936;2023-03-01T08:32:23;0.10;;;0.10;;
61360;SDS011;47232;47.506;18.936;2023-03-01T08:34:52;0.10;;;0.10;;
61360;SDS011;47232;47.506;18.936;2023-03-01T08:37:18;0.10;;;0.10;;
61360;SDS011;47232;47.506;18.936;2023-03-01T08:39:44;0.10;;;0.10;;
61360;SDS011;47232;47.506;18.936;2023-03-01T08:42:11;0.10;;;0.10;;
61360;SDS011;47232;47.506;18.936;2023-03-01T08:44:40;0.10;;;0.10;;
61360;SDS011;47232;47.506;18.936;2023-03-01T08:47:08;0.10;;;0.10;;
61360;SDS011;47232;47.506;18.936;2023-03-01T08:49:37;0.10;;;0.10;;
61360;SDS011;47232;47.506;18.936;2023-03-01T08:52:25;0.00;;;0.00;;
61360;SDS011;47232;47.506;18.936;2023-03-01T08:55:28;0.10;;;0.10;;
61360;SDS011;47232;47.506;18.936;2023-03-01T08:57:58;0.10;;;0.10;;
61360;SDS011;47232;47.506;18.936;2023-03-01T09:00:24;0.10;;;0.10;;
61360;SDS011;47232;47.506;18.936;2023-03-01T09:03:11;0.10;;;0.10;;
61360;SDS011;47232;47.506;18.936;2023-03-01T09:05:42;0.10;;;0.10;;
61360;SDS011;47232;47.506;18.936;2023-03-01T09:08:11;0.10;;;0.10;;
61360;SDS011;47232;47.506;18.936;2023-03-01T09:13:09;0.10;;;0.10;;
61360;SDS011;47232;47.506;18.936;2023-03-01T09:15:38;0.10;;;0.10;;
61360;SDS011;47232;47.506;18.936;2023-03-01T09:18:05;0.10;;;0.10;;
61360;SDS011;47232;47.506;18.936;2023-03-01T09:20:32;0.10;;;0.10;;
61360;SDS011;47232;47.506;18.936;2023-03-01T09:23:09;0.10;;;0.10;;
61360;SDS011;47232;47.506;18.936;2023-03-01T09:25:37;0.10;;;0.10;;
61360;SDS011;47232;47.506;18.936;2023-03-01T09:28:28;0.10;;;0.10;;
61360;SDS011;47232;47.506;18.936;2023-03-01T09:31:17;0.10;;;0.10;;
61360;SDS011;47232;47.506;18.936;2023-03-01T09:34:00;0.10;;;0.10;;
61360;SDS011;47232;47.506;18.936;2023-03-01T09:36:28;0.10;;;0.10;;
61360;SDS011;47232;47.506;18.936;2023-03-01T09:38:55;0.10;;;0.10;;
61360;SDS011;47232;47.506;18.936;2023-03-01T09:47:19;0.10;;;0.10;;
61360;SDS011;47232;47.506;18.936;2023-03-01T09:50:15;0.10;;;0.10;;
61360;SDS011;47232;47.506;18.936;2023-03-01T09:53:11;0.10;;;0.10;;
61360;SDS011;47232;47.506;18.936;2023-03-01T09:56:22;0.10;;;0.10;;
61360;SDS011;47232;47.506;18.936;2023-03-01T09:59:19;0.10;;;0.10;;
61360;SDS011;47232;47.506;18.936;2023-03-01T10:05:41;0.10;;;0.10;;
61360;SDS011;47232;47.506;18.936;2023-03-01T10:08:42;0.20;;;0.20;;
61360;SDS011;47232;47.506;18.936;2023-03-01T10:11:45;0.10;;;0.10;;
61360;SDS011;47232;47.506;18.936;2023-03-01T10:14:55;0.10;;;0.10;;
61360;SDS011;47232;47.506;18.936;2023-03-01T10:17:56;0.20;;;0.20;;
61360;SDS011;47232;47.506;18.936;2023-03-01T10:21:01;0.10;;;0.10;;
61360;SDS011;47232;47.506;18.936;2023-03-01T10:23:34;0.10;;;0.10;;
61360;SDS011;47232;47.506;18.936;2023-03-01T10:29:04;0.10;;;0.10;;
61360;SDS011;47232;47.506;18.936;2023-03-01T10:31:46;0.20;;;0.20;;
61360;SDS011;47232;47.506;18.936;2023-03-01T10:34:21;0.10;;;0.10;;
61360;SDS011;47232;47.506;18.936;2023-03-01T10:36:58;0.20;;;0.20;;
61360;SDS011;47232;47.506;18.936;2023-03-01T10:42:35;0.10;;;0.10;;
61360;SDS011;47232;47.506;18.936;2023-03-01T10:48:14;0.10;;;0.10;;
61360;SDS011;47232;47.506;18.936;2023-03-01T10:53:35;0.20;;;0.20;;
61360;SDS011;47232;47.506;18.936;2023-03-01T10:56:13;0.20;;;0.20;;
61360;SDS011;47232;47.506;18.936;2023-03-01T10:58:56;0.20;;;0.20;;
61360;SDS011;47232;47.506;18.936;2023-03-01T11:01:28;0.10;;;0.10;;
61360;SDS011;47232;47.506;18.936;2023-03-01T11:04:10;0.20;;;0.20;;
61360;SDS011;47232;47.506;18.936;2023-03-01T11:06:59;0.20;;;0.20;;
61360;SDS011;47232;47.506;18.936;2023-03-01T11:09:50;0.10;;;0.10;;
61360;SDS011;47232;47.506;18.936;2023-03-01T11:12:41;0.20;;;0.20;;
61360;SDS011;47232;47.506;18.936;2023-03-01T11:15:26;0.20;;;0.20;;
61360;SDS011;47232;47.506;18.936;2023-03-01T11:17:54;0.10;;;0.10;;
61360;SDS011;47232;47.506;18.936;2023-03-01T11:20:32;0.10;;;0.10;;
61360;SDS011;47232;47.506;18.936;2023-03-01T11:23:21;0.20;;;0.20;;
61360;SDS011;47232;47.506;18.936;2023-03-01T11:25:55;0.10;;;0.10;;
61360;SDS011;47232;47.506;18.936;2023-03-01T11:28:40;0.20;;;0.20;;
61360;SDS011;47232;47.506;18.936;2023-03-01T11:31:33;0.20;;;0.20;;
61360;SDS011;47232;47.506;18.936;2023-03-01T11:34:28;0.20;;;0.20;;
61360;SDS011;47232;47.506;18.936;2023-03-01T11:37:23;0.20;;;0.20;;
61360;SDS011;47232;47.506;18.936;2023-03-01T11:39:59;0.20;;;0.20;;
61360;SDS011;47232;47.506;18.936;2023-03-01T11:45:51;0.30;;;0.30;;
61360;SDS011;47232;47.506;18.936;2023-03-01T11:59:51;0.10;;;0.10;;
61360;SDS011;47232;47.506;18.936;2023-03-01T12:06:22;0.20;;;0.20;;
61360;SDS011;47232;47.506;18.936;2023-03-01T12:09:06;0.20;;;0.20;;
61360;SDS011;47232;47.506;18.936;2023-03-01T12:12:40;0.20;;;0.20;;
61360;SDS011;47232;47.506;18.936;2023-03-01T12:20:30;0.20;;;0.20;;
61360;SDS011;47232;47.506;18.936;2023-03-01T12:29:34;0.20;;;0.20;;
61360;SDS011;47232;47.506;18.936;2023-03-01T12:32:31;0.20;;;0.20;;
61360;SDS011;47232;47.506;18.936;2023-03-01T12:35:27;0.20;;;0.20;;
61360;SDS011;47232;47.506;18.936;2023-03-01T12:38:49;0.10;;;0.10;;
61360;SDS011;47232;47.506;18.936;2023-03-01T12:41:05;0.20;;;0.20;;
61360;SDS011;47232;47.506;18.936;2023-03-01T12:44:07;0.20;;;0.20;;
61360;SDS011;47232;47.506;18.936;2023-03-01T12:49:30;0.20;;;0.20;;
61360;SDS011;47232;47.506;18.936;2023-03-01T12:52:23;0.10;;;0.10;;
61360;SDS011;47232;47.506;18.936;2023-03-01T12:58:00;0.20;;;0.20;;
61360;SDS011;47232;47.506;18.936;2023-03-01T13:01:21;0.20;;;0.20;;
61360;SDS011;47232;47.506;18.936;2023-03-01T13:04:12;0.20;;;0.20;;
61360;SDS011;47232;47.506;18.936;2023-03-01T13:07:11;0.20;;;0.20;;
61360;SDS011;47232;47.506;18.936;2023-03-01T13:09:55;0.20;;;0.20;;
61360;SDS011;47232;47.506;18.936;2023-03-01T13:13:14;0.10;;;0.10;;
61360;SDS011;47232;47.506;18.936;2023-03-01T13:16:19;0.20;;;0.20;;
61360;SDS011;47232;47.506;18.936;2023-03-01T13:22:27;0.20;;;0.20;;
61360;SDS011;47232;47.506;18.936;2023-03-01T13:25:17;0.20;;;0.20;;
61360;SDS011;47232;47.506;18.936;2023-03-01T13:27:49;0.20;;;0.20;;
61360;SDS011;47232;47.506;18.936;2023-03-01T13:30:40;0.30;;;0.30;;
61360;SDS011;47232;47.506;18.936;2023-03-01T13:35:58;0.20;;;0.20;;
61360;SDS011;47232;47.506;18.936;2023-03-01T13:38:47;0.20;;;0.20;;
61360;SDS011;47232;47.506;18.936;2023-03-01T13:41:57;0.20;;;0.20;;
61360;SDS011;47232;47.506;18.936;2023-03-01T13:44:38;0.30;;;0.30;;
61360;SDS011;47232;47.506;18.936;2023-03-01T13:47:26;0.30;;;0.30;;
61360;SDS011;47232;47.506;18.936;2023-03-01T13:49:57;0.40;;;0.40;;
61360;SDS011;47232;47.506;18.936;2023-03-01T13:52:48;0.30;;;0.30;;
61360;SDS011;47232;47.506;18.936;2023-03-01T13:55:32;0.40;;;0.40;;
61360;SDS011;47232;47.506;18.936;2023-03-01T13:58:16;0.30;;;0.30;;
61360;SDS011;47232;47.506;18.936;2023-03-01T14:01:02;0.30;;;0.30;;
61360;SDS011;47232;47.506;18.936;2023-03-01T14:03:42;0.30;;;0.30;;
61360;SDS011;47232;47.506;18.936;2023-03-01T14:06:22;0.30;;;0.30;;
61360;SDS011;47232;47.506;18.936;2023-03-01T14:14:44;0.30;;;0.30;;
61360;SDS011;47232;47.506;18.936;2023-03-01T14:21:06;0.50;;;0.50;;
61360;SDS011;47232;47.506;18.936;2023-03-01T14:23:55;0.30;;;0.30;;
61360;SDS011;47232;47.506;18.936;2023-03-01T14:26:48;0.40;;;0.40;;
61360;SDS011;47232;47.506;18.936;2023-03-01T14:29:40;0.50;;;0.50;;
61360;SDS011;47232;47.506;18.936;2023-03-01T14:32:51;0.60;;;0.60;;
61360;SDS011;47232;47.506;18.936;2023-03-01T14:35:29;0.50;;;0.50;;
61360;SDS011;47232;47.506;18.936;2023-03-01T14:38:52;0.50;;;0.50;;
61360;SDS011;47232;47.506;18.936;2023-03-01T14:45:13;0.60;;;0.60;;
61360;SDS011;47232;47.506;18.936;2023-03-01T14:47:40;0.50;;;0.50;;
61360;SDS011;47232;47.506;18.936;2023-03-01T14:50:08;0.60;;;0.60;;
61360;SDS011;47232;47.506;18.936;2023-03-01T14:53:17;0.50;;;0.50;;
61360;SDS011;47232;47.506;18.936;2023-03-01T14:56:18;0.70;;;0.70;;
61360;SDS011;47232;47.506;18.936;2023-03-01T14:59:11;0.70;;;0.70;;
61360;SDS011;47232;47.506;18.936;2023-03-01T15:02:11;0.70;;;0.70;;
61360;SDS011;47232;47.506;18.936;2023-03-01T15:04:46;0.60;;;0.60;;
61360;SDS011;47232;47.506;18.936;2023-03-01T15:07:16;0.60;;;0.60;;
61360;SDS011;47232;47.506;18.936;2023-03-01T15:09:45;0.70;;;0.70;;
61360;SDS011;47232;47.506;18.936;2023-03-01T15:14:56;0.90;;;0.90;;
61360;SDS011;47232;47.506;18.936;2023-03-01T15:17:42;0.80;;;0.80;;
61360;SDS011;47232;47.506;18.936;2023-03-01T15:20:15;0.80;;;0.80;;
61360;SDS011;47232;47.506;18.936;2023-03-01T15:23:03;0.90;;;0.90;;
61360;SDS011;47232;47.506;18.936;2023-03-01T15:25:51;0.70;;;0.70;;
61360;SDS011;47232;47.506;18.936;2023-03-01T15:28:39;0.90;;;0.90;;
61360;SDS011;47232;47.506;18.936;2023-03-01T15:31:22;0.70;;;0.70;;
61360;SDS011;47232;47.506;18.936;2023-03-01T15:46:20;0.80;;;0.80;;
61360;SDS011;47232;47.506;18.936;2023-03-01T15:48:52;0.70;;;0.70;;
61360;SDS011;47232;47.506;18.936;2023-03-01T15:51:42;0.50;;;0.50;;
61360;SDS011;47232;47.506;18.936;2023-03-01T15:54:16;0.60;;;0.60;;
61360;SDS011;47232;47.506;18.936;2023-03-01T15:56:54;0.60;;;0.60;;
61360;SDS011;47232;47.506;18.936;2023-03-01T15:59:41;0.40;;;0.40;;
61360;SDS011;47232;47.506;18.936;2023-03-01T16:02:18;0.50;;;0.50;;
61360;SDS011;47232;47.506;18.936;2023-03-01T16:05:02;0.40;;;0.40;;
61360;SDS011;47232;47.506;18.936;2023-03-01T16:07:31;0.40;;;0.40;;
61360;SDS011;47232;47.506;18.936;2023-03-01T16:09:58;0.30;;;0.30;;
61360;SDS011;47232;47.506;18.936;2023-03-01T16:12:25;0.40;;;0.40;;
61360;SDS011;47232;47.506;18.936;2023-03-01T16:14:58;0.30;;;0.30;;
61360;SDS011;47232;47.506;18.936;2023-03-01T16:17:32;0.30;;;0.30;;
61360;SDS011;47232;47.506;18.936;2023-03-01T16:20:04;0.30;;;0.30;;
61360;SDS011;47232;47.506;18.936;2023-03-01T16:22:33;0.30;;;0.30;;
61360;SDS011;47232;47.506;18.936;2023-03-01T16:25:08;0.30;;;0.30;;
61360;SDS011;47232;47.506;18.936;2023-03-01T16:27:36;0.20;;;0.20;;
61360;SDS011;47232;47.506;18.936;2023-03-01T16:30:05;0.20;;;0.20;;
61360;SDS011;47232;47.506;18.936;2023-03-01T16:32:41;0.30;;;0.30;;
61360;SDS011;47232;47.506;18.936;2023-03-01T16:35:08;0.20;;;0.20;;
61360;SDS011;47232;47.506;18.936;2023-03-01T16:37:41;0.20;;;0.20;;
61360;SDS011;47232;47.506;18.936;2023-03-01T16:40:23;0.20;;;0.20;;
61360;SDS011;47232;47.506;18.936;2023-03-01T16:42:58;0.20;;;0.20;;
61360;SDS011;47232;47.506;18.936;2023-03-01T16:45:27;0.20;;;0.20;;
61360;SDS011;47232;47.506;18.936;2023-03-01T16:47:58;0.20;;;0.20;;
61360;SDS011;47232;47.506;18.936;2023-03-01T16:50:24;0.10;;;0.10;;
61360;SDS011;47232;47.506;18.936;2023-03-01T16:52:50;0.10;;;0.10;;
61360;SDS011;47232;47.506;18.936;2023-03-01T16:55:16;0.20;;;0.20;;
61360;SDS011;47232;47.506;18.936;2023-03-01T16:57:42;0.10;;;0.10;;
61360;SDS011;47232;47.506;18.936;2023-03-01T17:00:10;0.10;;;0.10;;
61360;SDS011;47232;47.506;18.936;2023-03-01T17:02:40;0.10;;;0.10;;
61360;SDS011;47232;47.506;18.936;2023-03-01T17:05:10;0.10;;;0.10;;
61360;SDS011;47232;47.506;18.936;2023-03-01T17:07:38;0.10;;;0.10;;
61360;SDS011;47232;47.506;18.936;2023-03-01T17:10:05;0.10;;;0.10;;
61360;SDS011;47232;47.506;18.936;2023-03-01T17:12:35;0.10;;;0.10;;
61360;SDS011;47232;47.506;18.936;2023-03-01T17:15:09;0.10;;;0.10;;
61360;SDS011;47232;47.506;18.936;2023-03-01T17:17:40;0.10;;;0.10;;
61360;SDS011;47232;47.506;18.936;2023-03-01T17:20:09;0.10;;;0.10;;
61360;SDS011;47232;47.506;18.936;2023-03-01T17:22:38;0.10;;;0.10;;
61360;SDS011;47232;47.506;18.936;2023-03-01T17:25:06;0.10;;;0.10;;
61360;SDS011;47232;47.506;18.936;2023-03-01T17:27:34;0.10;;;0.10;;
61360;SDS011;47232;47.506;18.936;2023-03-01T17:30:01;0.10;;;0.10;;
61360;SDS011;47232;47.506;18.936;2023-03-01T17:32:28;0.10;;;0.10;;
61360;SDS011;47232;47.506;18.936;2023-03-01T17:34:57;0.10;;;0.10;;
61360;SDS011;47232;47.506;18.936;2023-03-01T17:37:23;0.10;;;0.10;;
61360;SDS011;47232;47.506;18.936;2023-03-01T17:40:10;0.10;;;0.10;;
61360;SDS011;47232;47.506;18.936;2023-03-01T17:42:46;0.10;;;0.10;;
61360;SDS011;47232;47.506;18.936;2023-03-01T17:45:15;0.10;;;0.10;;